Time;durP1;ratioP1;P1;durP2;ratioP2;P2;SDS_P1;SDS_P2;PMS_P1;PMS_P2;Temp;Humidity;BMP_temperature;BMP_pressure;BME280_temperature;BME280_humidity;BME280_pressure;Samples;Min_cycle;Max_cycle;Signal;HPM_P1;HPM_P2
2022/07/10 00:00:10;;;;;;;3.30;2.97;;;22.20;99.90;;;;;;5089032;28;20458;-82
2022/07/10 00:02:39;;;;;;;2.47;2.30;;;22.20;99.90;;;;;;5081949;28;20973;-82
2022/07/10 00:05:10;;;;;;;2.27;2.07;;;22.20;99.90;;;;;;5085660;28;20485;-82
2022/07/10 00:07:49;;;;;;;2.70;2.40;;;22.20;99.90;;;;;;5085389;28;20438;-83
2022/07/10 00:10:19;;;;;;;2.67;1.80;;;22.10;99.90;;;;;;5087054;28;20529;-82
2022/07/10 00:12:48;;;;;;;2.33;2.23;;;22.10;99.90;;;;;;5088647;28;20549;-82
2022/07/10 00:15:17;;;;;;;2.80;2.30;;;22.10;99.90;;;;;;5082308;28;20453;-82
2022/07/10 00:17:46;;;;;;;2.30;2.10;;;22.10;99.90;;;;;;5078484;28;20475;-82
2022/07/10 00:20:15;;;;;;;2.13;2.00;;;22.10;99.90;;;;;;5086520;28;20485;-82
2022/07/10 00:22:43;;;;;;;1.60;1.50;;;22.00;99.90;;;;;;5082444;28;20481;-82
2022/07/10 00:25:14;;;;;;;2.30;2.10;;;22.10;99.90;;;;;;5079933;28;20879;-81
2022/07/10 00:27:43;;;;;;;2.27;1.80;;;22.10;99.90;;;;;;5077455;28;21044;-82
2022/07/10 00:30:11;;;;;;;2.20;2.00;;;22.10;99.90;;;;;;5078424;28;20466;-83
2022/07/10 00:32:40;;;;;;;2.27;2.10;;;22.10;99.90;;;;;;5078186;28;20485;-83
2022/07/10 00:35:08;;;;;;;2.17;2.07;;;22.10;99.90;;;;;;5074678;28;20455;-81
2022/07/10 00:37:37;;;;;;;2.33;2.13;;;22.10;99.90;;;;;;5082314;28;20538;-81
2022/07/10 00:40:07;;;;;;;2.77;2.43;;;22.10;99.90;;;;;;5086941;28;20451;-81
2022/07/10 00:42:37;;;;;;;2.10;2.00;;;22.20;99.90;;;;;;5084394;28;20492;-81
2022/07/10 00:45:06;;;;;;;2.30;2.10;;;22.10;99.90;;;;;;5082022;28;20446;-81
2022/07/10 00:47:34;;;;;;;2.47;2.00;;;22.10;99.90;;;;;;5086912;28;20457;-82
2022/07/10 00:50:03;;;;;;;2.00;1.87;;;22.10;99.90;;;;;;5083650;28;20537;-81
2022/07/10 00:52:33;;;;;;;2.10;1.90;;;22.10;99.90;;;;;;5081285;28;20474;-81
2022/07/10 00:55:01;;;;;;;4.17;2.50;;;22.10;99.90;;;;;;5084976;28;20461;-82
2022/07/10 00:57:29;;;;;;;2.47;2.00;;;22.10;99.90;;;;;;5080678;28;20487;-83
2022/07/10 00:59:59;;;;;;;1.87;1.77;;;22.10;99.90;;;;;;5085152;28;20469;-82
2022/07/10 01:02:27;;;;;;;2.30;2.20;;;22.10;99.90;;;;;;5080059;28;20468;-81
2022/07/10 01:04:58;;;;;;;1.97;1.87;;;22.10;99.90;;;;;;5084366;28;21024;-81
2022/07/10 01:07:27;;;;;;;2.70;2.50;;;22.10;99.90;;;;;;5077312;28;20463;-82
2022/07/10 01:09:56;;;;;;;2.37;2.10;;;22.00;99.90;;;;;;5086751;28;20854;-82
2022/07/10 01:12:25;;;;;;;2.20;2.00;;;22.00;99.90;;;;;;5080860;28;20471;-82
2022/07/10 01:14:53;;;;;;;3.13;1.87;;;22.00;99.90;;;;;;5082295;28;20455;-81
2022/07/10 01:17:24;;;;;;;2.60;2.40;;;22.00;99.90;;;;;;5082667;28;20449;-81
2022/07/10 01:19:52;;;;;;;2.23;2.03;;;22.00;99.90;;;;;;5084495;28;20901;-81
2022/07/10 01:22:22;;;;;;;2.57;2.37;;;22.00;99.90;;;;;;5082330;28;20469;-81
2022/07/10 01:24:50;;;;;;;2.40;2.20;;;22.00;99.90;;;;;;5086152;28;20952;-82
2022/07/10 01:27:19;;;;;;;2.67;2.33;;;21.90;99.90;;;;;;5086717;28;20461;-83
2022/07/10 01:29:48;;;;;;;3.30;2.23;;;21.90;99.90;;;;;;5084325;28;20457;-81
2022/07/10 01:32:16;;;;;;;2.07;1.93;;;21.90;99.90;;;;;;5082581;28;20488;-82
2022/07/10 01:34:46;;;;;;;3.10;2.67;;;21.90;99.90;;;;;;5087784;28;20493;-81
2022/07/10 01:37:15;;;;;;;2.70;2.50;;;21.90;99.90;;;;;;5081976;28;20450;-82
2022/07/10 01:39:44;;;;;;;2.77;2.53;;;21.90;99.90;;;;;;5084722;28;20473;-82
2022/07/10 01:42:13;;;;;;;2.67;2.47;;;21.90;99.90;;;;;;5081601;28;20468;-83
2022/07/10 01:44:41;;;;;;;2.20;2.00;;;21.80;99.90;;;;;;5083613;28;20462;-84
2022/07/10 01:47:10;;;;;;;2.30;2.20;;;21.80;99.90;;;;;;5083858;28;20461;-82
2022/07/10 01:49:38;;;;;;;3.30;2.37;;;21.80;99.90;;;;;;5087364;28;20446;-83
2022/07/10 01:52:07;;;;;;;2.60;2.40;;;21.70;99.90;;;;;;5085909;28;20477;-82
2022/07/10 01:54:35;;;;;;;2.60;2.40;;;21.70;99.90;;;;;;5090615;28;21025;-82
2022/07/10 01:57:06;;;;;;;2.90;2.70;;;21.70;99.90;;;;;;5081905;28;21158;-81
2022/07/10 01:59:34;;;;;;;3.00;2.80;;;21.70;99.90;;;;;;5086263;28;20571;-82
2022/07/10 02:02:02;;;;;;;3.03;2.73;;;21.70;99.90;;;;;;5083899;28;20473;-83
2022/07/10 02:04:41;;;;;;;3.33;3.13;;;21.60;99.90;;;;;;5089834;28;21068;-83
2022/07/10 02:07:10;;;;;;;3.60;2.53;;;21.60;99.90;;;;;;5077090;28;20448;-83
2022/07/10 02:09:39;;;;;;;3.37;2.73;;;21.60;99.90;;;;;;5084753;28;20447;-83
2022/07/10 02:12:11;;;;;;;2.93;2.73;;;21.50;99.90;;;;;;5085089;28;20497;-83
2022/07/10 02:14:39;;;;;;;2.90;2.80;;;21.50;99.90;;;;;;5082390;28;20449;-84
2022/07/10 02:17:09;;;;;;;3.03;2.83;;;21.50;99.90;;;;;;5083296;28;20454;-83
2022/07/10 02:19:37;;;;;;;3.90;3.60;;;21.40;99.90;;;;;;5081841;28;20869;-82
2022/07/10 02:22:05;;;;;;;4.87;3.50;;;21.40;99.90;;;;;;5079725;28;20493;-82
2022/07/10 02:24:34;;;;;;;3.60;3.20;;;21.40;99.90;;;;;;5081761;28;20458;-82
2022/07/10 02:27:02;;;;;;;3.33;3.10;;;21.40;99.90;;;;;;5085309;28;20515;-82
2022/07/10 02:29:32;;;;;;;3.70;3.40;;;21.40;99.90;;;;;;5084902;28;20454;-81
2022/07/10 02:32:00;;;;;;;4.70;3.73;;;21.30;99.90;;;;;;5083075;28;20469;-81
2022/07/10 02:34:29;;;;;;;3.40;3.20;;;21.30;99.90;;;;;;5083376;28;20459;-81
2022/07/10 02:36:57;;;;;;;3.60;3.30;;;21.30;99.90;;;;;;5082217;28;20916;-82
2022/07/10 02:39:25;;;;;;;3.97;3.67;;;21.30;99.90;;;;;;5085419;28;20470;-83
2022/07/10 02:41:54;;;;;;;3.50;3.20;;;21.30;99.90;;;;;;5083354;28;20470;-83
2022/07/10 02:44:22;;;;;;;4.30;3.33;;;21.30;99.90;;;;;;5081282;28;20462;-82
2022/07/10 02:46:52;;;;;;;4.17;3.87;;;21.30;99.90;;;;;;5081388;28;20465;-83
2022/07/10 02:49:20;;;;;;;5.40;4.40;;;21.30;99.90;;;;;;5079861;28;20453;-81
2022/07/10 02:51:56;;;;;;;4.80;4.40;;;21.30;99.90;;;;;;5084608;28;20518;-82
2022/07/10 02:54:24;;;;;;;6.30;5.57;;;21.30;99.90;;;;;;5087011;28;20507;-82
2022/07/10 02:56:53;;;;;;;5.13;4.37;;;21.30;99.90;;;;;;5084664;28;20825;-81
2022/07/10 02:59:21;;;;;;;6.20;5.70;;;21.30;99.90;;;;;;5083297;28;21017;-81
2022/07/10 03:01:50;;;;;;;5.03;4.53;;;21.30;99.90;;;;;;5083573;28;20502;-82
2022/07/10 03:04:19;;;;;;;6.77;5.97;;;21.40;99.90;;;;;;5082515;28;20453;-83
2022/07/10 03:06:47;;;;;;;5.90;5.40;;;21.30;99.90;;;;;;5089268;28;20454;-81
2022/07/10 03:09:16;;;;;;;5.60;5.10;;;21.30;99.90;;;;;;5089707;28;20441;-82
2022/07/10 03:11:44;;;;;;;6.80;6.17;;;21.30;99.90;;;;;;5080763;28;20454;-81
2022/07/10 03:14:13;;;;;;;6.23;5.63;;;21.30;99.90;;;;;;5079518;28;20515;-81
2022/07/10 03:16:41;;;;;;;6.13;5.60;;;21.30;99.90;;;;;;5081073;28;20437;-82
2022/07/10 03:19:11;;;;;;;5.93;5.43;;;21.20;99.90;;;;;;5079722;28;20469;-82
2022/07/10 03:21:40;;;;;;;7.17;6.47;;;21.20;99.90;;;;;;5077465;28;20444;-82
2022/07/10 03:24:09;;;;;;;6.17;5.60;;;21.10;99.90;;;;;;5079735;28;21045;-82
2022/07/10 03:26:37;;;;;;;7.20;6.33;;;21.20;99.90;;;;;;5083270;28;20450;-81
2022/07/10 03:29:05;;;;;;;6.90;6.30;;;21.20;99.90;;;;;;5081584;28;20454;-80
2022/07/10 03:31:33;;;;;;;7.10;6.00;;;21.10;99.90;;;;;;5078241;28;20458;-82
2022/07/10 03:34:03;;;;;;;7.40;6.70;;;21.10;99.90;;;;;;5077960;28;21075;-81
2022/07/10 03:36:32;;;;;;;6.40;5.90;;;21.10;99.90;;;;;;5081065;28;20446;-81
2022/07/10 03:39:01;;;;;;;7.03;6.43;;;21.10;99.90;;;;;;5082126;28;20462;-82
2022/07/10 03:41:29;;;;;;;6.43;5.83;;;21.10;99.90;;;;;;5083659;28;21474;-81
2022/07/10 03:43:57;;;;;;;6.30;5.70;;;21.00;99.90;;;;;;5083121;28;20445;-82
2022/07/10 03:46:26;;;;;;;6.90;6.20;;;21.00;99.90;;;;;;5081565;28;20972;-82
2022/07/10 03:48:54;;;;;;;6.70;5.47;;;21.00;99.90;;;;;;5081195;28;22737;-82
2022/07/10 03:51:22;;;;;;;6.50;5.60;;;21.00;99.90;;;;;;5082366;28;20449;-82
2022/07/10 03:53:52;;;;;;;7.80;5.77;;;21.00;99.90;;;;;;5090160;28;20473;-82
2022/07/10 03:59:02;;;;;;;6.27;5.53;;;21.00;99.90;;;;;;5090838;28;20450;-81
2022/07/10 04:01:31;;;;;;;6.10;5.50;;;21.00;99.90;;;;;;5081641;28;20489;-81
2022/07/10 04:03:59;;;;;;;6.33;5.83;;;21.00;99.90;;;;;;5085634;28;20458;-82
2022/07/10 04:06:29;;;;;;;5.80;5.30;;;21.00;99.90;;;;;;5088951;28;20493;-82
2022/07/10 04:08:59;;;;;;;6.07;5.57;;;21.00;99.90;;;;;;5087661;28;20450;-81
2022/07/10 04:11:27;;;;;;;5.57;5.17;;;21.00;99.90;;;;;;5079485;28;20450;-83
2022/07/10 04:13:55;;;;;;;6.53;5.93;;;21.00;99.90;;;;;;5086660;28;20974;-83
2022/07/10 04:16:24;;;;;;;5.20;4.80;;;21.10;99.90;;;;;;5076374;28;20487;-83
2022/07/10 04:18:52;;;;;;;5.40;4.90;;;21.00;99.90;;;;;;5082810;28;20446;-82
2022/07/10 04:21:21;;;;;;;5.60;5.20;;;21.00;99.90;;;;;;5080566;28;20473;-82
2022/07/10 04:23:49;;;;;;;4.70;4.30;;;21.00;99.90;;;;;;5080016;28;20469;-82
2022/07/10 04:26:19;;;;;;;5.40;4.90;;;21.00;99.90;;;;;;5079230;28;20800;-83
2022/07/10 04:28:47;;;;;;;5.10;4.70;;;21.00;99.90;;;;;;5081145;28;20458;-83
2022/07/10 04:31:15;;;;;;;6.50;5.63;;;20.90;99.90;;;;;;5080249;28;20543;-83
2022/07/10 04:33:44;;;;;;;4.50;4.10;;;21.00;99.90;;;;;;5084152;28;20902;-83
2022/07/10 04:36:12;;;;;;;4.67;3.90;;;20.90;99.90;;;;;;5083450;28;20503;-81
2022/07/10 04:38:40;;;;;;;4.27;3.97;;;20.90;99.90;;;;;;5081945;28;20453;-81
2022/07/10 04:41:09;;;;;;;4.40;3.40;;;20.90;99.90;;;;;;5072100;28;23074;-84
2022/07/10 04:43:39;;;;;;;4.60;4.20;;;21.00;99.90;;;;;;5082486;28;20505;-82
2022/07/10 04:46:07;;;;;;;4.70;4.27;;;21.00;99.90;;;;;;5077666;28;20468;-83
2022/07/10 04:48:36;;;;;;;3.40;3.10;;;21.00;99.90;;;;;;5078497;28;21071;-83
2022/07/10 04:51:06;;;;;;;4.10;3.70;;;21.00;99.90;;;;;;5080835;28;21047;-81
2022/07/10 04:53:34;;;;;;;4.70;4.30;;;21.00;99.90;;;;;;5084402;28;20478;-82
2022/07/10 04:56:02;;;;;;;5.03;4.53;;;21.00;99.90;;;;;;5081678;28;20450;-81
2022/07/10 04:58:31;;;;;;;5.50;3.40;;;20.90;99.90;;;;;;5084877;28;20441;-82
2022/07/10 05:01:00;;;;;;;3.60;3.30;;;20.90;99.90;;;;;;5085207;28;20477;-82
2022/07/10 05:03:29;;;;;;;3.77;3.40;;;21.00;99.90;;;;;;5077427;28;20939;-82
2022/07/10 05:05:58;;;;;;;3.43;2.80;;;20.90;99.90;;;;;;5080843;28;20454;-82
2022/07/10 05:08:26;;;;;;;3.47;3.17;;;20.90;99.90;;;;;;5076630;28;20468;-81
2022/07/10 05:10:55;;;;;;;3.50;3.20;;;20.90;99.90;;;;;;5075401;28;20534;-82
2022/07/10 05:13:23;;;;;;;4.20;3.40;;;20.90;99.90;;;;;;5080665;28;20476;-82
2022/07/10 05:15:51;;;;;;;5.30;2.77;;;20.90;99.90;;;;;;5079765;28;21015;-82
2022/07/10 05:18:22;;;;;;;3.20;2.90;;;20.90;99.90;;;;;;5084875;28;20449;-82
2022/07/10 05:20:50;;;;;;;3.40;3.10;;;20.90;99.90;;;;;;5080858;28;20478;-83
2022/07/10 05:23:19;;;;;;;3.50;3.20;;;20.90;99.90;;;;;;5084088;28;20481;-81
2022/07/10 05:25:47;;;;;;;4.37;2.90;;;20.90;99.90;;;;;;5074919;28;20461;-81
2022/07/10 05:28:16;;;;;;;5.00;2.80;;;20.90;99.90;;;;;;5078911;28;20446;-82
2022/07/10 05:30:44;;;;;;;3.80;2.50;;;20.90;99.90;;;;;;5075211;28;20446;-81
2022/07/10 05:33:13;;;;;;;3.10;2.90;;;20.90;99.90;;;;;;5078320;28;20568;-82
2022/07/10 05:35:42;;;;;;;2.60;2.00;;;20.90;99.90;;;;;;5079561;28;20541;-81
2022/07/10 05:38:11;;;;;;;2.60;2.40;;;20.90;99.90;;;;;;5081522;28;20456;-81
2022/07/10 05:40:39;;;;;;;3.03;2.63;;;20.90;99.90;;;;;;5080590;28;20557;-82
2022/07/10 05:43:09;;;;;;;2.30;2.10;;;20.80;99.90;;;;;;5082898;28;20499;-81
2022/07/10 05:45:39;;;;;;;7.00;2.17;;;20.80;99.90;;;;;;5083622;28;20446;-82
2022/07/10 05:48:14;;;;;;;2.27;2.07;;;20.90;99.90;;;;;;5082075;28;20461;-81
2022/07/10 05:50:44;;;;;;;2.10;2.00;;;20.90;99.90;;;;;;5080115;28;20533;-81
2022/07/10 05:53:12;;;;;;;3.23;1.87;;;20.90;99.90;;;;;;5085288;28;20548;-82
2022/07/10 05:55:41;;;;;;;2.50;2.10;;;20.90;99.90;;;;;;5081952;28;21014;-81
2022/07/10 05:58:09;;;;;;;2.33;1.70;;;20.90;99.90;;;;;;5089342;28;20457;-82
2022/07/10 06:00:38;;;;;;;2.90;2.00;;;20.90;99.90;;;;;;5085646;28;20537;-84
2022/07/10 06:03:06;;;;;;;3.23;1.60;;;20.80;99.90;;;;;;5081698;28;21495;-82
2022/07/10 06:05:35;;;;;;;3.20;1.60;;;20.80;99.90;;;;;;5079880;28;21262;-81
2022/07/10 06:08:05;;;;;;;2.30;1.67;;;20.80;99.90;;;;;;5085899;28;20466;-81
2022/07/10 06:10:34;;;;;;;1.60;1.50;;;20.80;99.90;;;;;;5077456;28;21345;-81
2022/07/10 06:13:03;;;;;;;3.23;1.70;;;20.90;99.90;;;;;;5079026;28;20462;-81
2022/07/10 06:15:32;;;;;;;1.53;1.20;;;20.90;99.90;;;;;;5082618;28;20491;-81
2022/07/10 06:18:01;;;;;;;1.40;1.30;;;21.00;99.90;;;;;;5085535;28;20488;-81
2022/07/10 06:20:30;;;;;;;1.30;1.20;;;21.10;99.90;;;;;;5080995;28;20451;-80
2022/07/10 06:22:59;;;;;;;1.43;1.33;;;21.10;99.90;;;;;;5086129;28;20462;-81
2022/07/10 06:25:30;;;;;;;1.80;1.30;;;21.10;99.90;;;;;;5084708;28;20458;-81
2022/07/10 06:27:59;;;;;;;2.47;1.30;;;21.10;99.90;;;;;;5081655;28;20438;-81
2022/07/10 06:30:28;;;;;;;1.83;1.30;;;21.10;99.90;;;;;;5083721;28;20818;-81
2022/07/10 06:32:56;;;;;;;1.53;1.23;;;21.10;99.90;;;;;;5085906;28;20506;-81
2022/07/10 06:35:25;;;;;;;1.40;1.27;;;21.10;99.90;;;;;;5081291;28;20527;-80
2022/07/10 06:37:53;;;;;;;2.10;1.40;;;21.10;99.90;;;;;;5083841;28;20545;-81
2022/07/10 06:40:22;;;;;;;1.67;1.40;;;21.10;99.90;;;;;;5081023;28;20453;-81
2022/07/10 06:42:53;;;;;;;3.70;1.77;;;21.10;99.90;;;;;;5079282;28;20570;-80
2022/07/10 06:45:22;;;;;;;1.83;1.73;;;21.10;99.90;;;;;;5079508;28;20460;-80
2022/07/10 06:47:57;;;;;;;2.23;1.37;;;21.10;99.90;;;;;;5070909;28;20464;-81
2022/07/10 06:50:29;;;;;;;2.60;1.60;;;21.10;99.90;;;;;;5070629;28;20462;-80
2022/07/10 06:52:58;;;;;;;2.67;1.30;;;21.10;99.90;;;;;;5080541;28;20503;-81
2022/07/10 06:55:27;;;;;;;1.47;1.37;;;21.10;99.90;;;;;;5074694;28;21051;-81
2022/07/10 06:57:58;;;;;;;1.80;1.20;;;21.20;99.90;;;;;;5084356;28;20515;-81
2022/07/10 07:00:27;;;;;;;1.63;1.20;;;21.20;99.90;;;;;;5083736;28;20465;-80
2022/07/10 07:02:57;;;;;;;1.43;1.30;;;21.20;99.90;;;;;;5081970;28;20485;-80
2022/07/10 07:05:26;;;;;;;2.33;1.50;;;21.20;99.90;;;;;;5079320;28;20461;-80
2022/07/10 07:07:55;;;;;;;1.97;1.20;;;21.20;99.90;;;;;;5078310;28;20454;-80
2022/07/10 07:10:24;;;;;;;2.00;1.20;;;21.30;99.90;;;;;;5073009;28;20465;-83
2022/07/10 07:12:53;;;;;;;2.60;1.00;;;21.40;99.90;;;;;;5078271;28;20469;-81
2022/07/10 07:15:24;;;;;;;1.23;1.13;;;21.30;99.90;;;;;;5083687;28;20508;-81
2022/07/10 07:18:07;;;;;;;2.03;1.43;;;21.30;99.90;;;;;;5086299;28;21216;-81
2022/07/10 07:23:24;;;;;;;1.50;1.00;;;21.30;99.90;;;;;;5077762;28;21252;-80
2022/07/10 07:25:55;;;;;;;1.60;1.17;;;21.30;99.90;;;;;;5079153;28;20447;-79
2022/07/10 07:28:24;;;;;;;1.50;1.07;;;21.20;99.90;;;;;;5083198;28;20450;-79
2022/07/10 07:30:55;;;;;;;2.17;1.30;;;21.20;99.90;;;;;;5079527;28;20457;-80
2022/07/10 07:33:24;;;;;;;3.47;1.50;;;21.20;99.90;;;;;;5083012;28;20579;-79
2022/07/10 07:35:54;;;;;;;1.50;1.37;;;21.10;99.90;;;;;;5078692;28;20529;-80
2022/07/10 07:38:24;;;;;;;1.60;1.00;;;21.20;99.90;;;;;;5081599;28;20507;-80
2022/07/10 07:40:53;;;;;;;1.20;1.10;;;21.20;99.90;;;;;;5078188;28;20480;-81
2022/07/10 07:43:22;;;;;;;1.50;1.10;;;21.30;99.90;;;;;;5087112;28;20511;-81
2022/07/10 07:45:54;;;;;;;1.53;1.10;;;21.40;99.90;;;;;;5084693;28;20453;-81
2022/07/10 07:48:23;;;;;;;1.13;1.03;;;21.50;99.90;;;;;;5090723;28;20449;-81
2022/07/10 07:50:53;;;;;;;0.83;0.83;;;21.40;99.90;;;;;;5088766;28;20536;-81
2022/07/10 07:53:23;;;;;;;7.17;3.47;;;21.40;99.90;;;;;;5098297;28;20469;-81
2022/07/10 07:55:53;;;;;;;4.17;1.60;;;21.40;99.90;;;;;;5092564;28;20881;-81
2022/07/10 07:58:24;;;;;;;2.10;1.37;;;21.40;99.90;;;;;;5091372;28;20442;-82
2022/07/10 08:00:56;;;;;;;1.00;0.90;;;21.50;99.90;;;;;;5082686;28;20454;-81
2022/07/10 08:03:26;;;;;;;1.10;1.00;;;21.60;99.90;;;;;;5077542;28;20473;-79
2022/07/10 08:06:15;;;;;;;4.90;1.33;;;21.70;99.90;;;;;;5080472;28;20482;-81
2022/07/10 08:08:45;;;;;;;0.80;0.80;;;21.60;99.90;;;;;;5079575;28;20566;-80
2022/07/10 08:11:15;;;;;;;1.40;1.30;;;21.60;99.90;;;;;;5078214;28;21000;-81
2022/07/10 08:13:44;;;;;;;1.83;1.00;;;21.60;99.90;;;;;;5088622;28;20954;-80
2022/07/10 08:16:14;;;;;;;1.27;1.17;;;21.70;99.90;;;;;;5083839;28;20461;-81
2022/07/10 08:18:43;;;;;;;2.37;1.70;;;21.60;99.90;;;;;;5087258;28;20442;-81
2022/07/10 08:21:13;;;;;;;2.37;1.00;;;21.70;99.90;;;;;;5078171;28;20435;-80
2022/07/10 08:23:43;;;;;;;1.57;0.80;;;21.70;99.90;;;;;;5085740;28;20570;-80
2022/07/10 08:26:12;;;;;;;1.03;0.70;;;21.90;99.90;;;;;;5087184;28;20450;-82
2022/07/10 08:28:41;;;;;;;1.20;1.10;;;21.90;99.90;;;;;;5080322;28;20460;-81
2022/07/10 08:31:13;;;;;;;1.70;1.20;;;21.90;99.90;;;;;;5087126;28;20460;-81
2022/07/10 08:33:44;;;;;;;1.27;1.17;;;22.00;99.90;;;;;;5080229;28;20477;-82
2022/07/10 08:36:14;;;;;;;1.47;1.13;;;22.00;99.90;;;;;;5088240;28;20503;-81
2022/07/10 08:39:04;;;;;;;1.37;1.27;;;22.00;99.90;;;;;;5078819;28;20459;-82
2022/07/10 08:41:36;;;;;;;0.83;0.83;;;22.00;99.90;;;;;;5087830;28;21024;-81
2022/07/10 08:44:05;;;;;;;1.17;1.07;;;22.00;99.90;;;;;;5085622;28;20551;-83
2022/07/10 08:46:37;;;;;;;3.33;0.90;;;22.00;99.90;;;;;;5083818;28;20453;-82
2022/07/10 08:49:11;;;;;;;2.00;1.90;;;22.00;99.90;;;;;;5082305;28;20469;-81
2022/07/10 08:51:48;;;;;;;1.00;0.90;;;22.00;99.90;;;;;;5087160;28;20461;-81
2022/07/10 08:54:19;;;;;;;1.93;1.13;;;22.10;99.90;;;;;;5083863;28;20547;-82
2022/07/10 08:56:51;;;;;;;1.40;1.30;;;22.20;99.90;;;;;;5097058;28;20473;-82
2022/07/10 08:59:23;;;;;;;1.33;1.10;;;22.20;99.90;;;;;;5079153;28;20512;-81
2022/07/10 09:02:01;;;;;;;1.20;1.10;;;22.30;99.90;;;;;;5081432;28;20477;-81
2022/07/10 09:04:31;;;;;;;1.37;1.27;;;22.40;99.90;;;;;;5082092;28;20476;-81
2022/07/10 09:07:00;;;;;;;1.23;1.13;;;22.40;99.90;;;;;;5089632;28;20509;-82
2022/07/10 09:09:30;;;;;;;1.23;1.00;;;22.40;99.90;;;;;;5080514;28;20467;-82
2022/07/10 09:11:59;;;;;;;1.33;0.90;;;22.50;99.90;;;;;;5079087;28;20508;-82
2022/07/10 09:14:32;;;;;;;1.73;1.07;;;22.50;99.90;;;;;;5079937;28;20457;-81
2022/07/10 09:17:05;;;;;;;2.93;1.20;;;22.50;99.90;;;;;;5076201;28;20464;-80
2022/07/10 09:19:36;;;;;;;1.50;1.40;;;22.50;99.90;;;;;;5085922;28;20940;-80
2022/07/10 09:22:09;;;;;;;1.20;1.10;;;22.60;99.90;;;;;;5080417;28;20963;-82
2022/07/10 09:24:40;;;;;;;3.03;1.13;;;22.60;99.90;;;;;;5083401;28;20481;-80
2022/07/10 09:27:11;;;;;;;2.50;1.00;;;22.60;99.90;;;;;;5084344;28;20450;-80
2022/07/10 09:29:48;;;;;;;1.30;1.20;;;22.70;99.90;;;;;;5075912;28;20493;-83
2022/07/10 09:32:20;;;;;;;2.53;1.20;;;22.70;99.90;;;;;;5083382;28;21018;-81
2022/07/10 09:36:04;;;;;;;2.60;1.13;;;22.70;99.90;;;;;;5082109;28;21057;-81
2022/07/10 09:37:43;;;;;;;1.40;1.30;;;22.80;99.90;;;;;;5081625;28;20529;-82
2022/07/10 09:40:12;;;;;;;1.37;1.20;;;22.80;99.90;;;;;;5085705;28;20512;-80
2022/07/10 09:42:44;;;;;;;1.40;1.30;;;22.60;99.90;;;;;;5082632;28;20484;-81
2022/07/10 09:45:22;;;;;;;1.67;1.23;;;22.60;99.90;;;;;;5085686;28;20461;-80
2022/07/10 09:48:03;;;;;;;1.60;1.50;;;22.60;99.90;;;;;;5086503;28;20950;-81
2022/07/10 09:50:33;;;;;;;1.77;1.20;;;22.60;99.90;;;;;;5085821;28;20540;-80
2022/07/10 09:53:04;;;;;;;1.70;1.60;;;22.60;99.90;;;;;;5086840;28;20472;-81
2022/07/10 09:55:34;;;;;;;1.20;1.10;;;22.60;99.90;;;;;;5090546;28;20450;-81
2022/07/10 09:58:06;;;;;;;1.10;1.00;;;22.50;99.90;;;;;;5094979;28;20450;-82
2022/07/10 10:00:36;;;;;;;2.63;1.60;;;22.60;99.90;;;;;;5089699;28;20465;-82
2022/07/10 10:03:08;;;;;;;1.77;1.37;;;22.60;99.90;;;;;;5084983;28;20985;-83
2022/07/10 10:05:40;;;;;;;1.57;1.40;;;22.70;99.90;;;;;;5090747;28;21016;-81
2022/07/10 10:08:13;;;;;;;2.20;1.33;;;22.70;99.90;;;;;;5090957;28;20453;-82
2022/07/10 10:10:47;;;;;;;4.03;1.80;;;22.80;99.90;;;;;;5084010;28;20460;-82
2022/07/10 10:13:19;;;;;;;1.80;1.47;;;22.80;99.90;;;;;;5087155;28;20470;-82
2022/07/10 10:15:49;;;;;;;4.60;1.20;;;22.70;99.90;;;;;;5090244;28;20457;-83
2022/07/10 10:18:21;;;;;;;2.40;1.37;;;22.70;99.90;;;;;;5081947;28;20461;-81
2022/07/10 10:20:52;;;;;;;1.40;1.30;;;22.70;99.90;;;;;;5094221;28;22296;-83
2022/07/10 10:23:24;;;;;;;1.30;1.20;;;22.80;99.90;;;;;;5087125;28;20482;-82
2022/07/10 10:25:54;;;;;;;1.73;1.20;;;22.90;99.90;;;;;;5093017;28;20448;-82
2022/07/10 10:28:24;;;;;;;1.83;1.30;;;22.90;99.90;;;;;;5087618;28;20457;-81
2022/07/10 10:30:56;;;;;;;1.23;1.10;;;23.00;99.90;;;;;;5087384;28;20445;-81
2022/07/10 10:33:46;;;;;;;2.00;1.20;;;23.10;99.90;;;;;;5087012;28;20470;-81
2022/07/10 10:36:36;;;;;;;1.47;1.00;;;23.10;99.90;;;;;;5086811;28;20454;-81
2022/07/10 10:39:10;;;;;;;1.37;1.03;;;23.20;99.90;;;;;;5087339;28;20446;-82
2022/07/10 10:41:49;;;;;;;1.40;1.30;;;23.20;99.90;;;;;;5087577;28;20493;-81
2022/07/10 10:44:26;;;;;;;1.23;1.10;;;23.20;99.90;;;;;;5077523;28;21031;-82
2022/07/10 10:47:01;;;;;;;1.13;1.03;;;23.30;99.90;;;;;;5078751;28;21241;-82
2022/07/10 10:50:04;;;;;;;1.60;1.27;;;23.20;99.90;;;;;;5084555;28;20518;-81
2022/07/10 10:52:34;;;;;;;1.10;1.00;;;23.20;99.90;;;;;;5085831;28;20484;-82
2022/07/10 10:55:12;;;;;;;2.17;1.10;;;23.20;99.90;;;;;;5083423;28;20476;-82
2022/07/10 10:57:47;;;;;;;1.87;1.20;;;23.30;99.90;;;;;;5082444;28;20453;-84
2022/07/10 11:00:40;;;;;;;1.47;1.10;;;23.30;99.90;;;;;;5084329;28;20455;-82
2022/07/10 11:03:17;;;;;;;1.20;1.10;;;23.30;99.90;;;;;;5083786;28;20573;-83
2022/07/10 11:05:47;;;;;;;1.60;1.20;;;23.30;99.90;;;;;;5087460;28;20499;-83
2022/07/10 11:08:37;;;;;;;3.70;1.50;;;23.40;99.90;;;;;;5085696;28;20469;-83
2022/07/10 11:11:43;;;;;;;1.67;1.27;;;23.40;99.90;;;;;;5074124;28;20480;-81
2022/07/10 11:14:12;;;;;;;1.73;1.20;;;23.50;99.90;;;;;;5085484;28;20544;-82
2022/07/10 11:16:49;;;;;;;1.30;1.20;;;23.50;99.90;;;;;;5083681;28;20914;-82
2022/07/10 11:19:23;;;;;;;0.80;0.80;;;23.50;99.90;;;;;;5086271;28;20211;-81
2022/07/10 11:22:09;;;;;;;1.50;1.10;;;23.50;99.90;;;;;;5084774;28;20833;-81
2022/07/10 11:24:56;;;;;;;1.13;1.03;;;23.50;99.90;;;;;;5099715;28;20466;-81
2022/07/10 11:27:43;;;;;;;2.80;1.30;;;23.50;99.90;;;;;;5086202;28;20454;-81
2022/07/10 11:30:11;;;;;;;4.90;1.30;;;23.40;99.90;;;;;;5086402;28;20452;-81
2022/07/10 11:32:40;;;;;;;1.67;0.90;;;23.40;99.90;;;;;;5088056;28;20564;-81
2022/07/10 11:35:12;;;;;;;2.83;1.00;;;23.40;99.90;;;;;;5083782;28;20568;-81
2022/07/10 11:37:50;;;;;;;0.93;0.90;;;23.50;99.90;;;;;;5082658;28;21296;-82
2022/07/10 11:40:21;;;;;;;1.60;0.90;;;23.50;99.90;;;;;;5088465;28;20445;-82
2022/07/10 11:42:51;;;;;;;1.87;0.90;;;23.60;99.90;;;;;;5087553;28;21016;-82
2022/07/10 11:45:31;;;;;;;1.93;1.20;;;23.60;99.90;;;;;;5085862;28;20522;-82
2022/07/10 11:48:00;;;;;;;2.30;0.80;;;23.60;99.90;;;;;;5083859;28;20446;-83
2022/07/10 11:50:34;;;;;;;1.27;0.80;;;23.60;99.90;;;;;;5088006;28;20549;-82
2022/07/10 11:53:04;;;;;;;0.87;0.87;;;23.10;99.90;;;;;;5090665;28;20561;-82
2022/07/10 11:55:40;;;;;;;2.70;1.23;;;23.70;99.90;;;;;;5088336;28;20452;-82
2022/07/10 11:58:15;;;;;;;0.90;0.90;;;23.70;99.90;;;;;;5081402;28;20537;-82
2022/07/10 12:00:45;;;;;;;0.80;0.80;;;23.70;98.20;;;;;;5090371;28;20445;-82
2022/07/10 12:03:20;;;;;;;1.77;1.10;;;23.70;99.80;;;;;;5083520;28;20473;-83
2022/07/10 12:05:56;;;;;;;2.10;0.97;;;23.80;99.90;;;;;;5089064;28;20488;-82
2022/07/10 12:08:24;;;;;;;2.50;0.80;;;23.80;99.90;;;;;;5084928;28;20461;-82
2022/07/10 12:10:54;;;;;;;1.23;1.00;;;23.80;99.60;;;;;;5088214;28;20465;-82
2022/07/10 12:13:23;;;;;;;1.73;0.80;;;23.80;99.00;;;;;;5088764;28;20476;-82
2022/07/10 12:15:52;;;;;;;0.70;0.70;;;23.70;98.20;;;;;;5075967;28;20457;-82
2022/07/10 12:18:22;;;;;;;1.13;0.90;;;23.70;99.50;;;;;;5081889;28;20458;-83
2022/07/10 12:20:52;;;;;;;0.90;0.80;;;23.70;97.70;;;;;;5081302;28;21032;-83
2022/07/10 12:23:23;;;;;;;2.50;0.90;;;23.70;98.00;;;;;;5086369;28;20481;-81
2022/07/10 12:25:51;;;;;;;2.00;1.80;;;23.70;97.50;;;;;;5089367;28;20863;-82
2022/07/10 12:28:21;;;;;;;0.70;0.70;;;23.80;99.20;;;;;;5082088;28;20457;-84
2022/07/10 12:30:50;;;;;;;0.80;0.80;;;23.80;97.80;;;;;;5083950;28;20961;-81
2022/07/10 12:33:22;;;;;;;1.90;0.80;;;23.80;95.30;;;;;;5085736;28;20518;-83
2022/07/10 12:35:52;;;;;;;0.90;0.70;;;23.80;96.40;;;;;;5089547;28;20541;-80
2022/07/10 12:38:22;;;;;;;0.60;0.60;;;23.80;94.90;;;;;;5089566;28;20567;-83
2022/07/10 12:40:51;;;;;;;1.27;0.77;;;23.90;96.00;;;;;;5088497;28;20441;-82
2022/07/10 12:43:29;;;;;;;0.70;0.70;;;23.90;95.20;;;;;;5090255;28;20488;-82
2022/07/10 12:46:15;;;;;;;1.03;0.87;;;23.90;95.90;;;;;;5091358;28;20477;-81
2022/07/10 12:48:45;;;;;;;1.90;0.97;;;24.00;95.10;;;;;;5084327;28;20991;-83
2022/07/10 12:51:24;;;;;;;1.20;0.80;;;23.90;94.20;;;;;;5085620;28;21270;-82
2022/07/10 12:53:52;;;;;;;0.70;0.70;;;23.90;94.60;;;;;;5087769;28;20473;-82
2022/07/10 12:56:31;;;;;;;1.67;0.80;;;24.00;94.70;;;;;;5090194;28;20462;-83
2022/07/10 12:59:01;;;;;;;1.80;0.67;;;24.00;94.10;;;;;;5075863;28;20442;-83
2022/07/10 13:01:39;;;;;;;1.57;0.63;;;24.10;94.60;;;;;;5077906;28;20458;-83
2022/07/10 13:04:09;;;;;;;1.00;0.80;;;24.10;93.50;;;;;;5076143;28;20885;-82
2022/07/10 13:06:40;;;;;;;0.80;0.80;;;24.10;93.40;;;;;;5077954;28;20809;-80
2022/07/10 13:09:20;;;;;;;0.60;0.60;;;24.10;91.90;;;;;;5082261;28;20533;-81
2022/07/10 13:11:48;;;;;;;1.03;0.60;;;24.10;92.20;;;;;;5092155;28;20976;-81